sensor_id;sensor_type;location;lat;lon;timestamp;P1;durP1;ratioP1;P2;durP2;ratioP2
34290;SDS011;20553;47.544;7.586;2022-08-01T10:27:25;1.85;;;1.50;;
34290;SDS011;20553;47.544;7.586;2022-08-01T10:33:12;1.57;;;1.47;;
34290;SDS011;20553;47.544;7.586;2022-08-01T10:38:44;1.45;;;1.23;;
34290;SDS011;20553;47.544;7.586;2022-08-01T10:45:07;1.65;;;1.30;;
34290;SDS011;20553;47.544;7.586;2022-08-01T10:56:20;1.40;;;1.30;;
34290;SDS011;20553;47.544;7.586;2022-08-01T11:02:02;1.50;;;1.40;;
34290;SDS011;20553;47.544;7.586;2022-08-01T11:20:37;1.20;;;1.10;;
34290;SDS011;20553;47.544;7.586;2022-08-01T11:26:21;1.45;;;1.35;;
34290;SDS011;20553;47.544;7.586;2022-08-01T11:31:32;1.20;;;1.00;;
34290;SDS011;20553;47.544;7.586;2022-08-01T11:36:43;2.40;;;1.30;;
34290;SDS011;20553;47.544;7.586;2022-08-01T11:42:17;1.38;;;1.27;;
34290;SDS011;20553;47.544;7.586;2022-08-01T11:53:46;2.53;;;1.40;;
34290;SDS011;20553;47.544;7.586;2022-08-01T11:59:23;1.10;;;0.90;;
34290;SDS011;20553;47.544;7.586;2022-08-01T12:17:39;2.30;;;1.00;;
34290;SDS011;20553;47.544;7.586;2022-08-01T12:22:59;1.10;;;1.00;;
34290;SDS011;20553;47.544;7.586;2022-08-01T12:28:09;1.80;;;1.20;;
34290;SDS011;20553;47.544;7.586;2022-08-01T12:33:16;1.75;;;1.10;;
34290;SDS011;20553;47.544;7.586;2022-08-01T12:38:23;2.10;;;1.20;;
34290;SDS011;20553;47.544;7.586;2022-08-01T12:43:30;1.10;;;1.00;;
34290;SDS011;20553;47.544;7.586;2022-08-01T12:48:36;1.63;;;1.17;;
34290;SDS011;20553;47.544;7.586;2022-08-01T12:53:41;1.23;;;1.13;;
34290;SDS011;20553;47.544;7.586;2022-08-01T12:58:48;1.50;;;1.30;;
34290;SDS011;20553;47.544;7.586;2022-08-01T13:03:59;1.55;;;1.08;;
34290;SDS011;20553;47.544;7.586;2022-08-01T13:09:06;3.00;;;1.60;;
34290;SDS011;20553;47.544;7.586;2022-08-01T13:14:27;1.52;;;1.20;;
34290;SDS011;20553;47.544;7.586;2022-08-01T13:19:41;3.10;;;1.30;;
34290;SDS011;20553;47.544;7.586;2022-08-01T13:24:47;1.73;;;1.20;;
34290;SDS011;20553;47.544;7.586;2022-08-01T13:29:53;2.20;;;1.40;;
34290;SDS011;20553;47.544;7.586;2022-08-01T13:35:13;2.67;;;1.40;;
34290;SDS011;20553;47.544;7.586;2022-08-01T13:40:25;1.92;;;1.30;;
34290;SDS011;20553;47.544;7.586;2022-08-01T13:45:32;1.40;;;1.10;;
34290;SDS011;20553;47.544;7.586;2022-08-01T13:50:38;1.23;;;1.13;;
34290;SDS011;20553;47.544;7.586;2022-08-01T13:55:42;1.33;;;1.23;;
34290;SDS011;20553;47.544;7.586;2022-08-01T14:00:49;1.60;;;1.20;;
34290;SDS011;20553;47.544;7.586;2022-08-01T14:05:54;1.90;;;1.20;;
34290;SDS011;20553;47.544;7.586;2022-08-01T14:11:00;3.00;;;1.40;;
34290;SDS011;20553;47.544;7.586;2022-08-01T14:16:10;1.83;;;1.50;;
34290;SDS011;20553;47.544;7.586;2022-08-01T14:21:19;2.27;;;1.90;;
34290;SDS011;20553;47.544;7.586;2022-08-01T14:26:23;1.60;;;1.50;;
34290;SDS011;20553;47.544;7.586;2022-08-01T14:31:29;2.00;;;1.80;;
34290;SDS011;20553;47.544;7.586;2022-08-01T14:36:35;1.90;;;1.70;;
34290;SDS011;20553;47.544;7.586;2022-08-01T14:41:40;3.08;;;1.98;;
34290;SDS011;20553;47.544;7.586;2022-08-01T14:46:49;2.97;;;2.00;;
34290;SDS011;20553;47.544;7.586;2022-08-01T14:51:59;2.50;;;2.30;;
34290;SDS011;20553;47.544;7.586;2022-08-01T14:57:03;2.30;;;2.10;;
34290;SDS011;20553;47.544;7.586;2022-08-01T15:02:09;2.47;;;2.27;;
34290;SDS011;20553;47.544;7.586;2022-08-01T15:07:15;3.70;;;2.00;;
34290;SDS011;20553;47.544;7.586;2022-08-01T15:12:21;2.10;;;1.90;;
34290;SDS011;20553;47.544;7.586;2022-08-01T15:17:34;2.30;;;2.10;;
34290;SDS011;20553;47.544;7.586;2022-08-01T15:22:41;3.70;;;2.30;;
34290;SDS011;20553;47.544;7.586;2022-08-01T15:27:45;2.80;;;2.13;;
34290;SDS011;20553;47.544;7.586;2022-08-01T15:32:55;3.73;;;2.37;;
34290;SDS011;20553;47.544;7.586;2022-08-01T15:38:00;2.50;;;2.00;;
34290;SDS011;20553;47.544;7.586;2022-08-01T15:43:06;2.00;;;1.90;;
34290;SDS011;20553;47.544;7.586;2022-08-01T15:48:18;2.80;;;2.03;;
34290;SDS011;20553;47.544;7.586;2022-08-01T15:53:26;2.30;;;1.98;;
34290;SDS011;20553;47.544;7.586;2022-08-01T15:58:32;2.42;;;2.00;;
34290;SDS011;20553;47.544;7.586;2022-08-01T16:03:38;2.80;;;2.33;;
34290;SDS011;20553;47.544;7.586;2022-08-01T16:08:42;1.95;;;1.75;;
34290;SDS011;20553;47.544;7.586;2022-08-01T16:13:49;2.17;;;1.98;;
34290;SDS011;20553;47.544;7.586;2022-08-01T16:18:57;2.20;;;2.00;;
34290;SDS011;20553;47.544;7.586;2022-08-01T16:24:01;2.38;;;1.80;;
34290;SDS011;20553;47.544;7.586;2022-08-01T16:29:06;2.97;;;1.92;;
34290;SDS011;20553;47.544;7.586;2022-08-01T16:34:12;2.45;;;1.75;;
34290;SDS011;20553;47.544;7.586;2022-08-01T16:39:17;1.95;;;1.80;;
34290;SDS011;20553;47.544;7.586;2022-08-01T16:44:25;2.13;;;1.92;;
34290;SDS011;20553;47.544;7.586;2022-08-01T16:49:37;2.47;;;2.28;;
34290;SDS011;20553;47.544;7.586;2022-08-01T16:54:41;2.37;;;2.07;;
34290;SDS011;20553;47.544;7.586;2022-08-01T16:59:45;2.90;;;2.60;;
34290;SDS011;20553;47.544;7.586;2022-08-01T17:04:51;2.33;;;2.13;;
34290;SDS011;20553;47.544;7.586;2022-08-01T17:09:56;2.70;;;2.50;;
34290;SDS011;20553;47.544;7.586;2022-08-01T17:15:02;2.10;;;1.90;;
34290;SDS011;20553;47.544;7.586;2022-08-01T17:20:11;2.28;;;2.08;;
34290;SDS011;20553;47.544;7.586;2022-08-01T17:25:15;2.27;;;2.07;;
34290;SDS011;20553;47.544;7.586;2022-08-01T17:30:19;2.45;;;2.20;;
34290;SDS011;20553;47.544;7.586;2022-08-01T17:35:25;2.90;;;2.00;;
34290;SDS011;20553;47.544;7.586;2022-08-01T17:40:30;2.20;;;2.00;;
34290;SDS011;20553;47.544;7.586;2022-08-01T17:45:42;2.45;;;1.90;;
34290;SDS011;20553;47.544;7.586;2022-08-01T17:50:53;2.38;;;2.17;;
34290;SDS011;20553;47.544;7.586;2022-08-01T17:55:58;2.77;;;2.30;;
34290;SDS011;20553;47.544;7.586;2022-08-01T18:01:04;3.30;;;2.40;;
34290;SDS011;20553;47.544;7.586;2022-08-01T18:06:10;2.43;;;2.10;;
34290;SDS011;20553;47.544;7.586;2022-08-01T18:11:18;4.05;;;2.80;;
34290;SDS011;20553;47.544;7.586;2022-08-01T18:16:22;4.00;;;3.33;;
34290;SDS011;20553;47.544;7.586;2022-08-01T18:21:28;4.80;;;3.47;;
34290;SDS011;20553;47.544;7.586;2022-08-01T18:26:34;5.35;;;3.20;;
34290;SDS011;20553;47.544;7.586;2022-08-01T18:31:39;5.20;;;2.97;;
34290;SDS011;20553;47.544;7.586;2022-08-01T18:36:46;4.00;;;2.65;;
34290;SDS011;20553;47.544;7.586;2022-08-01T18:41:50;2.75;;;1.95;;
34290;SDS011;20553;47.544;7.586;2022-08-01T18:46:55;4.20;;;2.10;;
34290;SDS011;20553;47.544;7.586;2022-08-01T18:52:00;2.35;;;2.15;;
34290;SDS011;20553;47.544;7.586;2022-08-01T18:57:06;2.60;;;1.90;;
34290;SDS011;20553;47.544;7.586;2022-08-01T19:02:11;5.80;;;5.28;;
34290;SDS011;20553;47.544;7.586;2022-08-01T19:07:18;2.10;;;1.80;;
34290;SDS011;20553;47.544;7.586;2022-08-01T19:12:43;2.53;;;2.00;;
34290;SDS011;20553;47.544;7.586;2022-08-01T19:17:47;2.60;;;2.13;;
34290;SDS011;20553;47.544;7.586;2022-08-01T19:22:53;2.28;;;2.00;;
34290;SDS011;20553;47.544;7.586;2022-08-01T19:27:58;2.33;;;2.13;;
34290;SDS011;20553;47.544;7.586;2022-08-01T19:33:03;3.60;;;2.35;;
34290;SDS011;20553;47.544;7.586;2022-08-01T19:38:10;3.85;;;2.63;;
34290;SDS011;20553;47.544;7.586;2022-08-01T19:43:16;3.33;;;3.03;;
34290;SDS011;20553;47.544;7.586;2022-08-01T19:48:23;4.32;;;3.20;;
34290;SDS011;20553;47.544;7.586;2022-08-01T19:53:29;3.53;;;3.23;;
34290;SDS011;20553;47.544;7.586;2022-08-01T19:58:40;4.28;;;3.60;;
34290;SDS011;20553;47.544;7.586;2022-08-01T20:03:47;2.93;;;2.53;;
34290;SDS011;20553;47.544;7.586;2022-08-01T20:08:58;3.20;;;2.55;;
34290;SDS011;20553;47.544;7.586;2022-08-01T20:14:03;3.25;;;2.72;;
34290;SDS011;20553;47.544;7.586;2022-08-01T20:19:07;5.88;;;2.70;;
34290;SDS011;20553;47.544;7.586;2022-08-01T20:24:14;5.00;;;4.60;;
34290;SDS011;20553;47.544;7.586;2022-08-01T20:29:23;5.53;;;4.93;;
34290;SDS011;20553;47.544;7.586;2022-08-01T20:37:02;4.53;;;3.80;;
34290;SDS011;20553;47.544;7.586;2022-08-01T20:42:15;3.45;;;3.15;;
34290;SDS011;20553;47.544;7.586;2022-08-01T20:47:19;3.30;;;2.97;;
34290;SDS011;20553;47.544;7.586;2022-08-01T20:52:26;3.50;;;2.67;;
34290;SDS011;20553;47.544;7.586;2022-08-01T20:57:30;4.35;;;3.40;;
34290;SDS011;20553;47.544;7.586;2022-08-01T21:02:37;4.27;;;3.17;;
34290;SDS011;20553;47.544;7.586;2022-08-01T21:08:01;5.20;;;4.15;;
34290;SDS011;20553;47.544;7.586;2022-08-01T21:13:12;2.67;;;2.47;;
34290;SDS011;20553;47.544;7.586;2022-08-01T21:18:24;2.00;;;1.80;;
